Time;durP1;ratioP1;P1;durP2;ratioP2;P2;SDS_P1;SDS_P2;PMS_P1;PMS_P2;Temp;Humidity;BMP_temperature;BMP_pressure;BME280_temperature;BME280_humidity;BME280_pressure;Samples;Min_cycle;Max_cycle;Signal;HPM_P1;HPM_P2
2021/06/14 02:45:36;;;;;;;9.55;4.53;;;14.00;75.80;;;;;;5504836;24;20137;-76
2021/06/14 02:48:10;;;;;;;8.40;4.00;;;13.90;75.80;;;;;;4717863;30;20301;-75
2021/06/14 02:50:39;;;;;;;13.32;3.53;;;13.90;75.90;;;;;;4711662;30;20030;-75
2021/06/14 02:53:12;;;;;;;11.85;4.93;;;14.00;75.80;;;;;;4711763;30;20194;-75
2021/06/14 02:55:51;;;;;;;10.73;3.53;;;14.00;75.60;;;;;;4709557;30;20030;-76
2021/06/14 02:58:21;;;;;;;7.55;3.58;;;14.00;75.70;;;;;;4714612;30;20042;-75
2021/06/14 03:00:48;;;;;;;13.77;4.25;;;14.00;75.90;;;;;;4722633;30;20041;-76
2021/06/14 03:03:14;;;;;;;15.63;4.20;;;14.00;75.70;;;;;;4711906;30;20270;-75
2021/06/14 03:05:43;;;;;;;15.32;4.25;;;14.10;75.60;;;;;;4710778;30;20034;-76
2021/06/14 03:08:10;;;;;;;11.82;3.90;;;14.00;75.50;;;;;;4711266;30;20030;-76
2021/06/14 03:10:36;;;;;;;13.93;4.30;;;14.10;75.70;;;;;;4712301;30;20344;-76
2021/06/14 03:13:04;;;;;;;11.57;3.95;;;14.10;75.50;;;;;;4710013;30;20034;-76
2021/06/14 03:15:33;;;;;;;12.93;4.22;;;14.00;75.70;;;;;;4711190;30;20110;-76
2021/06/14 03:18:02;;;;;;;12.25;4.10;;;14.10;75.60;;;;;;4714672;30;20221;-76
2021/06/14 03:20:30;;;;;;;7.40;3.85;;;14.10;75.50;;;;;;4712319;30;20168;-76
2021/06/14 03:22:56;;;;;;;14.00;4.63;;;14.20;75.30;;;;;;4710124;30;20037;-76
2021/06/14 03:25:22;;;;;;;8.93;3.90;;;14.10;75.40;;;;;;4711220;30;20037;-76
2021/06/14 03:27:50;;;;;;;7.95;3.40;;;14.20;75.40;;;;;;4711232;30;20030;-76
2021/06/14 03:30:19;;;;;;;16.33;4.32;;;14.20;75.30;;;;;;4712377;30;20061;-76
2021/06/14 03:32:47;;;;;;;12.80;4.35;;;14.20;75.20;;;;;;4710929;30;20045;-76
2021/06/14 03:35:16;;;;;;;11.63;4.10;;;14.20;75.30;;;;;;4712176;30;20040;-76
2021/06/14 03:37:43;;;;;;;14.43;4.18;;;14.20;75.30;;;;;;4712323;30;20037;-76
2021/06/14 03:40:11;;;;;;;10.95;4.15;;;14.20;75.30;;;;;;4708841;30;20034;-76
2021/06/14 03:42:38;;;;;;;15.40;4.53;;;14.30;75.60;;;;;;4725511;30;20036;-76
2021/06/14 03:45:06;;;;;;;10.20;4.13;;;14.30;75.60;;;;;;4711847;30;20064;-76
2021/06/14 03:47:32;;;;;;;13.95;4.38;;;14.30;75.30;;;;;;4711622;30;20041;-76
2021/06/14 03:49:58;;;;;;;13.77;4.35;;;14.40;75.20;;;;;;4711854;30;20324;-76
2021/06/14 03:52:23;;;;;;;14.30;4.80;;;14.40;75.10;;;;;;4711831;30;20203;-76
2021/06/14 03:54:49;;;;;;;14.80;3.83;;;14.50;75.00;;;;;;4710555;30;20037;-76
2021/06/14 03:57:15;;;;;;;7.35;3.67;;;14.60;74.80;;;;;;4710625;30;20090;-76
2021/06/14 03:59:41;;;;;;;14.15;4.47;;;14.70;74.50;;;;;;4711762;30;20041;-76
2021/06/14 04:02:07;;;;;;;9.45;4.75;;;14.80;74.40;;;;;;4711636;30;20308;-76
2021/06/14 04:07:08;;;;;;;18.40;5.05;;;15.00;73.90;;;;;;4711548;30;20026;-76
2021/06/14 04:09:34;;;;;;;12.13;4.65;;;15.00;73.60;;;;;;4710509;30;20112;-77
2021/06/14 04:12:01;;;;;;;11.88;5.05;;;15.20;73.40;;;;;;4711681;30;20036;-76
2021/06/14 04:14:27;;;;;;;11.40;4.22;;;15.30;73.00;;;;;;4710430;30;20075;-77
2021/06/14 04:16:53;;;;;;;12.50;4.55;;;15.40;72.70;;;;;;4715398;30;20029;-76
2021/06/14 04:19:19;;;;;;;11.38;4.43;;;15.50;72.40;;;;;;4711552;30;20033;-77
2021/06/14 04:21:45;;;;;;;10.13;4.88;;;15.50;71.60;;;;;;4711290;30;20096;-76
2021/06/14 04:24:10;;;;;;;16.55;4.60;;;15.50;71.90;;;;;;4707669;30;20030;-77
2021/06/14 04:26:36;;;;;;;16.70;4.82;;;15.60;71.90;;;;;;4709154;30;20033;-76
2021/06/14 04:29:03;;;;;;;19.15;5.90;;;15.70;71.50;;;;;;4711161;30;20037;-77
2021/06/14 04:31:29;;;;;;;16.33;4.68;;;15.60;72.10;;;;;;4710060;30;20076;-77
2021/06/14 04:33:55;;;;;;;8.98;4.70;;;15.60;72.00;;;;;;4709692;30;20045;-77
2021/06/14 04:36:20;;;;;;;19.75;7.90;;;15.70;71.90;;;;;;4711142;30;20226;-76
2021/06/14 04:38:46;;;;;;;17.10;6.63;;;15.80;72.50;;;;;;4710006;30;20033;-76
2021/06/14 04:41:12;;;;;;;12.35;4.30;;;15.80;72.30;;;;;;4701325;30;20037;-76
2021/06/14 04:43:38;;;;;;;15.75;4.88;;;15.90;72.80;;;;;;4711105;30;20033;-76
2021/06/14 04:46:04;;;;;;;13.35;4.85;;;16.00;71.60;;;;;;4707181;30;20081;-76
2021/06/14 04:48:30;;;;;;;13.95;4.85;;;16.00;71.50;;;;;;4709991;30;20084;-76
2021/06/14 04:50:56;;;;;;;14.02;4.88;;;16.20;71.20;;;;;;4700662;30;20041;-77
2021/06/14 04:53:21;;;;;;;10.50;5.05;;;16.20;70.10;;;;;;4707903;30;20197;-76
2021/06/14 04:55:47;;;;;;;15.63;4.88;;;16.20;70.30;;;;;;4706619;30;20410;-76
2021/06/14 04:58:13;;;;;;;29.42;12.88;;;16.30;70.70;;;;;;4707259;30;20025;-77
2021/06/14 05:00:39;;;;;;;12.25;4.78;;;16.20;70.10;;;;;;4706678;30;20348;-76
2021/06/14 05:03:05;;;;;;;13.50;4.93;;;16.20;70.10;;;;;;4709068;30;20026;-76
2021/06/14 05:05:31;;;;;;;13.85;4.28;;;16.20;69.80;;;;;;4704734;30;20037;-76
2021/06/14 05:07:57;;;;;;;11.13;4.60;;;16.20;69.70;;;;;;4709461;30;20029;-76
2021/06/14 05:10:23;;;;;;;12.80;4.80;;;16.30;69.70;;;;;;4709530;30;20061;-77
2021/06/14 05:12:49;;;;;;;13.18;5.30;;;16.40;69.50;;;;;;4709516;30;20037;-76
2021/06/14 05:15:15;;;;;;;10.90;4.50;;;16.50;69.20;;;;;;4709557;30;20429;-76
2021/06/14 05:17:41;;;;;;;11.38;4.53;;;16.90;68.90;;;;;;4706922;30;20034;-75
2021/06/14 05:20:07;;;;;;;15.23;4.80;;;17.10;66.80;;;;;;4700522;30;20041;-76
2021/06/14 05:22:33;;;;;;;10.43;4.00;;;17.50;66.90;;;;;;4709211;30;20044;-76
2021/06/14 05:24:59;;;;;;;12.23;4.97;;;18.40;64.20;;;;;;4708979;30;20041;-77
2021/06/14 05:27:24;;;;;;;15.32;4.78;;;18.80;61.60;;;;;;4708265;30;20080;-76
2021/06/14 05:29:50;;;;;;;11.60;4.10;;;19.10;61.10;;;;;;4710147;30;20052;-75
2021/06/14 05:32:17;;;;;;;13.43;4.53;;;19.70;58.40;;;;;;4710151;30;20033;-76
2021/06/14 05:34:43;;;;;;;13.40;4.28;;;20.40;57.60;;;;;;4707021;30;20044;-75
2021/06/14 05:37:09;;;;;;;14.70;4.82;;;21.00;55.40;;;;;;4709027;30;20101;-76
2021/06/14 05:39:34;;;;;;;10.75;4.90;;;21.60;53.70;;;;;;4708949;30;20333;-76
2021/06/14 05:42:00;;;;;;;17.73;4.30;;;22.30;52.90;;;;;;4708911;30;20040;-76
2021/06/14 05:44:27;;;;;;;8.40;3.97;;;22.70;50.60;;;;;;4709895;30;20093;-76
2021/06/14 05:46:53;;;;;;;7.32;3.70;;;22.90;49.30;;;;;;4731551;30;20053;-76
2021/06/14 05:49:19;;;;;;;13.27;4.50;;;23.10;48.80;;;;;;4694422;30;20101;-76
2021/06/14 05:51:44;;;;;;;11.02;4.40;;;22.70;47.90;;;;;;4708754;30;20352;-76
2021/06/14 05:54:11;;;;;;;12.75;3.58;;;22.40;48.20;;;;;;4709544;30;20025;-76
2021/06/14 05:56:36;;;;;;;12.50;4.17;;;22.10;48.70;;;;;;4709749;30;20038;-76
2021/06/14 05:59:04;;;;;;;15.57;4.60;;;21.80;48.80;;;;;;4709527;30;20026;-76
2021/06/14 06:01:30;;;;;;;15.38;5.15;;;21.50;49.80;;;;;;4705518;30;20151;-76
2021/06/14 06:03:56;;;;;;;16.50;5.45;;;21.30;51.00;;;;;;4707444;30;20299;-77
2021/06/14 06:06:21;;;;;;;10.80;4.63;;;21.30;51.00;;;;;;4708339;30;20040;-76
2021/06/14 06:08:47;;;;;;;12.02;4.70;;;21.20;50.80;;;;;;4705713;30;20394;-76
2021/06/14 06:11:13;;;;;;;15.02;4.75;;;21.00;51.40;;;;;;4705373;30;20041;-76
2021/06/14 06:13:39;;;;;;;11.38;4.30;;;21.10;51.70;;;;;;4708885;30;20089;-76
2021/06/14 06:16:05;;;;;;;13.63;5.18;;;21.20;51.00;;;;;;4709574;30;20041;-76
2021/06/14 06:18:31;;;;;;;11.07;4.47;;;21.10;51.60;;;;;;4708129;30;20076;-76
2021/06/14 06:20:56;;;;;;;10.68;4.78;;;20.90;50.80;;;;;;4703312;30;20033;-76
2021/06/14 06:23:22;;;;;;;10.77;4.60;;;20.70;51.00;;;;;;4706115;30;20236;-76
2021/06/14 06:25:48;;;;;;;16.15;5.22;;;20.70;51.40;;;;;;4707972;30;20038;-76
2021/06/14 06:28:14;;;;;;;8.95;4.00;;;20.70;52.00;;;;;;4709709;30;20037;-77
2021/06/14 06:30:40;;;;;;;11.82;4.53;;;20.90;52.20;;;;;;4708200;30;20064;-76
2021/06/14 06:33:10;;;;;;;14.63;5.35;;;21.10;51.00;;;;;;4708348;30;20034;-76
2021/06/14 06:35:37;;;;;;;10.15;4.68;;;21.20;51.10;;;;;;4708203;30;20060;-76
2021/06/14 06:38:04;;;;;;;11.80;4.60;;;21.10;51.00;;;;;;4705606;30;20237;-76
2021/06/14 06:40:30;;;;;;;16.17;5.10;;;21.10;51.40;;;;;;4705163;30;20049;-76
2021/06/14 06:42:57;;;;;;;11.27;4.57;;;21.10;51.50;;;;;;4709179;30;20030;-76
2021/06/14 06:45:24;;;;;;;9.77;4.00;;;21.20;51.00;;;;;;4706893;30;20337;-76
2021/06/14 06:47:50;;;;;;;9.63;4.05;;;21.30;51.00;;;;;;4702601;30;20076;-76
2021/06/14 06:50:17;;;;;;;11.18;5.00;;;21.50;51.30;;;;;;4707565;30;20037;-76
2021/06/14 06:52:43;;;;;;;15.57;4.95;;;21.90;51.00;;;;;;4707786;30;20033;-76
2021/06/14 06:55:12;;;;;;;13.57;4.40;;;22.10;50.60;;;;;;4704857;30;20037;-75
2021/06/14 06:57:38;;;;;;;12.85;4.82;;;22.10;50.00;;;;;;4707152;30;20048;-76
2021/06/14 07:00:08;;;;;;;10.67;4.63;;;22.20;49.00;;;;;;4708893;30;20045;-76
2021/06/14 07:02:33;;;;;;;8.65;3.70;;;21.90;48.60;;;;;;4709057;30;20053;-76
2021/06/14 07:04:59;;;;;;;9.43;3.97;;;21.40;50.20;;;;;;4708917;30;20064;-76
2021/06/14 07:07:25;;;;;;;13.73;4.85;;;21.20;50.20;;;;;;4708497;30;20026;-76
2021/06/14 07:09:51;;;;;;;11.73;4.43;;;21.20;51.20;;;;;;4709159;30;20052;-76
2021/06/14 07:12:16;;;;;;;10.00;4.00;;;21.40;50.70;;;;;;4704179;30;20040;-75
2021/06/14 07:14:42;;;;;;;9.07;3.97;;;21.70;51.20;;;;;;4708948;30;20045;-76
2021/06/14 07:17:08;;;;;;;12.77;4.30;;;22.20;50.20;;;;;;4710469;30;20037;-76
2021/06/14 07:19:34;;;;;;;8.40;3.95;;;22.60;48.80;;;;;;4710824;30;20033;-77
2021/06/14 07:22:00;;;;;;;11.50;3.75;;;22.70;47.90;;;;;;4724882;30;20030;-76
2021/06/14 07:24:26;;;;;;;9.05;3.88;;;22.70;47.90;;;;;;4710800;30;20201;-77
2021/06/14 07:26:52;;;;;;;11.02;3.58;;;22.70;47.20;;;;;;4709947;30;20063;-76
2021/06/14 07:29:18;;;;;;;7.20;3.45;;;22.60;46.20;;;;;;4710694;30;20037;-76
2021/06/14 07:31:43;;;;;;;10.05;4.05;;;22.20;46.90;;;;;;4711093;30;20107;-76
2021/06/14 07:34:09;;;;;;;11.40;4.00;;;22.00;48.00;;;;;;4712243;30;20097;-76
2021/06/14 07:36:35;;;;;;;11.60;3.42;;;21.90;48.10;;;;;;4696478;30;20026;-76
2021/06/14 07:39:02;;;;;;;13.45;3.40;;;21.70;47.40;;;;;;4708041;30;20193;-76
2021/06/14 07:41:28;;;;;;;;;;;21.70;48.70;;;;;;4705454;30;20036;-75
2021/06/14 07:43:53;;;;;;;8.80;3.70;;;21.60;47.60;;;;;;4702698;30;19919;-75
2021/06/14 07:46:19;;;;;;;8.68;3.30;;;21.50;47.10;;;;;;4724890;30;20061;-75
2021/06/14 07:48:45;;;;;;;8.10;4.18;;;21.40;49.00;;;;;;4711630;30;20030;-76
2021/06/14 07:51:12;;;;;;;6.35;3.42;;;21.30;48.40;;;;;;4707065;30;20045;-75
2021/06/14 07:53:38;;;;;;;;;;;21.20;49.00;;;;;;4710916;30;20041;-75
2021/06/14 07:56:06;;;;;;;8.60;3.40;;;21.40;49.20;;;;;;4709195;30;19977;-76
2021/06/14 07:58:32;;;;;;;6.80;2.97;;;21.70;47.40;;;;;;4711315;30;20041;-75
2021/06/14 08:00:58;;;;;;;11.43;2.90;;;21.60;45.90;;;;;;4706865;30;20042;-75
2021/06/14 08:03:24;;;;;;;8.05;2.80;;;21.60;46.60;;;;;;4717336;30;20030;-74
2021/06/14 08:05:51;;;;;;;9.32;2.63;;;21.80;44.30;;;;;;4707324;30;20053;-74
2021/06/14 08:08:17;;;;;;;8.02;3.30;;;21.80;43.50;;;;;;4709280;30;20423;-75
2021/06/14 08:10:45;;;;;;;5.55;2.78;;;21.80;45.00;;;;;;4709551;30;20084;-75
2021/06/14 08:13:11;;;;;;;11.48;2.75;;;21.80;44.70;;;;;;4710693;30;20309;-75
2021/06/14 08:15:38;;;;;;;7.07;3.22;;;21.70;44.50;;;;;;4709203;30;20034;-75
2021/06/14 08:26:22;;;;;;;5.50;2.80;;;21.90;44.00;;;;;;4709783;30;19950;-75
2021/06/14 08:28:48;;;;;;;10.95;3.10;;;21.90;42.90;;;;;;4711767;30;20034;-74
2021/06/14 08:31:14;;;;;;;10.43;3.33;;;21.90;42.80;;;;;;4710774;30;20052;-75
2021/06/14 08:33:39;;;;;;;9.75;3.13;;;22.00;44.20;;;;;;4708986;30;20366;-75
2021/06/14 08:36:05;;;;;;;19.50;2.90;;;22.10;43.70;;;;;;4710963;30;20084;-75
2021/06/14 08:38:32;;;;;;;18.02;3.33;;;22.20;43.00;;;;;;4708337;30;20034;-75
2021/06/14 08:40:58;;;;;;;13.20;3.15;;;22.30;42.70;;;;;;4709294;30;20036;-74
2021/06/14 08:43:24;;;;;;;12.10;3.13;;;22.40;43.80;;;;;;4709630;30;20332;-74
2021/06/14 08:45:51;;;;;;;15.75;2.92;;;22.50;42.30;;;;;;4710817;30;20053;-75
2021/06/14 08:48:17;;;;;;;;;;;22.60;42.60;;;;;;4695766;30;20091;-75
2021/06/14 08:50:44;;;;;;;8.60;3.65;;;22.60;41.50;;;;;;4706829;30;19912;-75
2021/06/14 08:53:10;;;;;;;12.03;3.20;;;22.60;43.90;;;;;;4706760;30;20065;-75
2021/06/14 08:55:37;;;;;;;10.38;2.90;;;22.70;42.50;;;;;;4695265;30;20066;-75
2021/06/14 08:58:04;;;;;;;7.53;3.55;;;22.90;43.40;;;;;;4710489;30;20040;-75
2021/06/14 09:00:30;;;;;;;;;;;23.10;42.80;;;;;;4710800;30;20033;-75
2021/06/14 09:02:57;;;;;;;9.20;3.63;;;23.20;41.80;;;;;;4710190;30;19934;-76
2021/06/14 09:05:23;;;;;;;15.70;4.45;;;23.40;43.70;;;;;;4710443;30;20088;-75
2021/06/14 09:07:51;;;;;;;6.53;3.22;;;23.70;41.70;;;;;;4709340;30;20034;-75
2021/06/14 09:10:31;;;;;;;8.82;2.92;;;23.70;40.60;;;;;;4709128;30;20037;-75
2021/06/14 09:13:10;;;;;;;12.18;4.45;;;23.80;40.60;;;;;;4704793;30;20084;-75
2021/06/14 09:15:37;;;;;;;9.55;3.53;;;23.70;40.30;;;;;;4706593;30;20038;-75
2021/06/14 09:18:23;;;;;;;6.97;3.15;;;23.50;40.20;;;;;;4713312;30;20033;-76
2021/06/14 09:20:59;;;;;;;7.45;3.70;;;23.30;40.90;;;;;;4710005;30;20297;-74
2021/06/14 09:23:26;;;;;;;6.93;3.67;;;23.20;42.60;;;;;;4710047;30;20101;-75
2021/06/14 09:25:52;;;;;;;;;;;23.40;41.90;;;;;;4710641;30;20026;-75
2021/06/14 09:28:18;;;;;;;6.85;3.00;;;23.60;42.10;;;;;;4712060;30;19910;-75
2021/06/14 09:30:44;;;;;;;8.40;3.88;;;23.60;42.10;;;;;;4709941;30;20037;-75
2021/06/14 09:33:23;;;;;;;9.38;3.95;;;23.30;40.60;;;;;;4708483;30;20103;-75
2021/06/14 09:36:04;;;;;;;10.35;3.72;;;22.90;41.60;;;;;;4709893;30;20118;-75
2021/06/14 09:38:30;;;;;;;10.77;3.83;;;22.80;43.40;;;;;;4705643;30;20113;-75
2021/06/14 09:40:57;;;;;;;6.38;3.42;;;22.80;42.90;;;;;;4702930;30;20041;-75
2021/06/14 09:43:31;;;;;;;10.88;4.15;;;23.00;44.80;;;;;;4709443;30;20340;-75
2021/06/14 09:46:00;;;;;;;12.73;4.13;;;23.20;42.40;;;;;;4709813;30;20044;-76
2021/06/14 09:48:28;;;;;;;14.18;4.47;;;23.40;43.00;;;;;;4705805;30;20314;-76
2021/06/14 09:50:56;;;;;;;11.50;3.85;;;23.50;43.70;;;;;;4706034;30;20034;-75
2021/06/14 09:53:35;;;;;;;13.00;4.20;;;23.70;43.10;;;;;;4709435;30;20100;-75
2021/06/14 09:56:23;;;;;;;11.48;4.47;;;23.60;42.50;;;;;;4706923;30;20033;-75
2021/06/14 09:58:53;;;;;;;10.00;4.25;;;23.90;42.70;;;;;;4691227;30;20095;-75
2021/06/14 10:01:27;;;;;;;9.10;4.13;;;23.90;45.10;;;;;;4706784;30;20041;-75
2021/06/14 10:03:53;;;;;;;15.25;4.82;;;24.30;42.10;;;;;;4705356;30;20203;-75
2021/06/14 10:06:29;;;;;;;9.98;4.75;;;24.60;42.10;;;;;;4704837;30;20033;-75
2021/06/14 10:08:55;;;;;;;10.13;4.18;;;24.40;40.80;;;;;;4701930;30;20084;-75
2021/06/14 10:11:21;;;;;;;11.10;4.50;;;24.10;40.40;;;;;;4709279;30;20045;-75
2021/06/14 10:13:49;;;;;;;9.38;4.25;;;24.10;42.20;;;;;;4705520;30;20034;-76
2021/06/14 10:16:25;;;;;;;11.18;5.00;;;24.20;42.50;;;;;;4693352;30;20041;-75
2021/06/14 10:18:57;;;;;;;7.00;4.25;;;24.50;42.40;;;;;;4701821;30;20057;-73
2021/06/14 10:21:31;;;;;;;11.32;4.25;;;24.40;43.40;;;;;;4708430;30;20117;-73
2021/06/14 10:24:12;;;;;;;8.65;4.40;;;24.10;41.40;;;;;;4709004;30;20082;-73
2021/06/14 10:26:42;;;;;;;21.27;5.13;;;23.70;42.80;;;;;;4704592;30;20108;-74
2021/06/14 10:29:12;;;;;;;10.55;4.45;;;24.00;43.50;;;;;;4707437;30;20042;-74
2021/06/14 10:31:43;;;;;;;10.13;4.35;;;24.40;43.10;;;;;;4703034;30;20061;-74
2021/06/14 10:34:11;;;;;;;13.88;3.95;;;24.70;43.40;;;;;;4706284;30;20096;-74
2021/06/14 10:36:42;;;;;;;10.02;4.68;;;24.70;41.70;;;;;;4704682;30;20037;-74
2021/06/14 10:39:10;;;;;;;8.88;4.47;;;24.70;41.90;;;;;;4705786;30;20033;-74
2021/06/14 10:41:36;;;;;;;9.45;4.65;;;24.60;42.70;;;;;;4707802;30;20038;-74
2021/06/14 10:44:05;;;;;;;13.45;4.70;;;24.90;42.80;;;;;;4707022;30;20021;-75
2021/06/14 10:46:32;;;;;;;8.20;4.32;;;25.10;41.10;;;;;;4707027;30;20065;-73
2021/06/14 10:49:01;;;;;;;12.82;4.15;;;25.00;42.10;;;;;;4706210;30;20312;-73
2021/06/14 10:51:31;;;;;;;15.63;4.10;;;24.90;41.60;;;;;;4709918;30;20033;-74
2021/06/14 10:54:11;;;;;;;8.02;4.03;;;24.80;41.50;;;;;;4711339;30;20313;-74
2021/06/14 10:56:39;;;;;;;10.70;4.68;;;25.00;42.40;;;;;;4714477;30;20025;-74
2021/06/14 10:59:08;;;;;;;8.18;4.40;;;25.20;41.50;;;;;;4701274;30;20034;-74
2021/06/14 11:01:39;;;;;;;9.73;4.00;;;25.30;40.10;;;;;;4712543;30;20466;-74
2021/06/14 11:04:06;;;;;;;12.70;4.75;;;25.40;41.10;;;;;;4712506;30;20038;-74
2021/06/14 11:06:37;;;;;;;12.45;4.38;;;25.30;39.30;;;;;;4716829;30;20029;-74
2021/06/14 11:09:12;;;;;;;15.38;4.90;;;25.10;39.80;;;;;;4696123;30;20029;-74
2021/06/14 11:11:52;;;;;;;8.93;4.20;;;25.10;42.00;;;;;;4710887;30;20252;-74
2021/06/14 11:14:44;;;;;;;10.45;3.88;;;25.00;40.50;;;;;;4710761;30;20045;-73
2021/06/14 11:17:31;;;;;;;8.30;4.43;;;25.00;42.10;;;;;;4712073;30;20033;-74
2021/06/14 11:20:00;;;;;;;10.52;4.30;;;25.20;40.50;;;;;;4705830;30;20041;-73
2021/06/14 11:22:38;;;;;;;12.15;4.60;;;25.00;40.80;;;;;;4711553;30;20188;-74
2021/06/14 11:25:33;;;;;;;11.57;4.45;;;25.00;41.50;;;;;;4709527;30;20337;-74
2021/06/14 11:28:03;;;;;;;10.05;4.68;;;24.90;40.10;;;;;;4706736;30;20221;-74
2021/06/14 11:30:46;;;;;;;9.32;4.20;;;24.50;39.70;;;;;;4695811;30;20056;-73
2021/06/14 11:33:27;;;;;;;8.77;4.28;;;24.60;42.30;;;;;;4720229;30;20045;-73
2021/06/14 11:35:53;;;;;;;6.40;3.97;;;24.80;41.10;;;;;;4710244;30;20051;-73
2021/06/14 11:38:21;;;;;;;9.65;4.18;;;24.90;41.70;;;;;;4709779;30;20094;-73
2021/06/14 11:40:52;;;;;;;8.90;4.28;;;25.10;40.50;;;;;;4711153;30;20052;-74
2021/06/14 11:43:19;;;;;;;11.88;4.20;;;25.20;40.00;;;;;;4695727;30;20026;-73
2021/06/14 11:45:46;;;;;;;12.45;4.13;;;25.20;40.20;;;;;;4711613;30;20057;-74
2021/06/14 11:48:25;;;;;;;13.70;3.55;;;25.30;40.30;;;;;;4707748;30;20097;-74
2021/06/14 11:51:18;;;;;;;8.68;3.83;;;25.50;41.70;;;;;;4713354;30;20030;-74
2021/06/14 11:53:57;;;;;;;6.07;3.97;;;25.60;39.90;;;;;;4719172;30;20037;-73
2021/06/14 11:56:28;;;;;;;9.23;3.75;;;25.70;39.90;;;;;;4711211;30;20034;-74
2021/06/14 11:58:56;;;;;;;36.90;9.07;;;25.70;39.60;;;;;;4707437;30;20037;-73
2021/06/14 12:01:26;;;;;;;13.70;5.57;;;25.60;40.50;;;;;;4709443;30;20052;-74
2021/06/14 12:04:00;;;;;;;10.32;4.22;;;25.90;40.60;;;;;;4708344;30;20045;-74
2021/06/14 12:06:27;;;;;;;9.32;3.85;;;26.10;38.40;;;;;;4709667;30;20049;-75
2021/06/14 12:09:05;;;;;;;;;;;26.30;38.20;;;;;;4705369;30;20041;-73
2021/06/14 12:11:30;;;;;;;10.20;4.38;;;26.30;38.90;;;;;;4709969;30;19919;-74
2021/06/14 12:13:56;;;;;;;7.55;3.30;;;26.50;38.10;;;;;;4711015;30;20092;-74
2021/06/14 12:16:25;;;;;;;7.90;3.53;;;26.30;38.50;;;;;;4712383;30;20033;-74
2021/06/14 12:19:00;;;;;;;6.45;3.72;;;26.40;37.40;;;;;;4706537;30;20041;-74
2021/06/14 12:21:26;;;;;;;6.55;4.05;;;26.50;38.50;;;;;;4707988;30;20050;-74
2021/06/14 12:23:52;;;;;;;28.55;11.15;;;26.60;38.40;;;;;;4704278;30;20022;-74
2021/06/14 12:26:17;;;;;;;10.85;4.28;;;26.80;38.20;;;;;;4706956;30;20400;-74
2021/06/14 12:28:43;;;;;;;13.93;5.40;;;26.80;38.70;;;;;;4712558;30;20103;-74
2021/06/14 12:31:12;;;;;;;8.87;4.60;;;26.80;39.20;;;;;;4706327;30;20034;-74
2021/06/14 12:33:41;;;;;;;13.20;5.03;;;26.90;37.00;;;;;;4708071;30;20088;-75
2021/06/14 12:36:12;;;;;;;11.30;3.45;;;26.80;36.70;;;;;;4706395;30;20046;-74
2021/06/14 12:38:49;;;;;;;21.05;4.35;;;26.70;35.90;;;;;;4724065;30;20262;-74
2021/06/14 12:41:17;;;;;;;10.02;3.90;;;26.60;34.30;;;;;;4703908;30;20042;-74
2021/06/14 12:43:43;;;;;;;11.48;4.43;;;26.30;35.70;;;;;;4707899;30;20033;-75
2021/06/14 12:46:09;;;;;;;6.90;3.33;;;26.20;39.20;;;;;;4708957;30;20045;-74
2021/06/14 12:48:34;;;;;;;14.73;4.00;;;26.20;35.80;;;;;;4710795;30;20225;-73
2021/06/14 12:51:00;;;;;;;6.28;3.58;;;26.10;35.90;;;;;;4709522;30;20099;-74
2021/06/14 12:53:28;;;;;;;6.77;3.73;;;26.10;37.10;;;;;;4709696;30;20100;-74
2021/06/14 12:55:56;;;;;;;15.35;4.18;;;26.20;37.40;;;;;;4706247;30;20113;-74
2021/06/14 12:58:28;;;;;;;10.43;4.80;;;26.20;37.10;;;;;;4707633;30;20029;-74
2021/06/14 13:01:01;;;;;;;9.90;3.97;;;26.20;37.60;;;;;;4708140;30;20034;-73
2021/06/14 13:03:38;;;;;;;9.13;4.00;;;26.30;37.90;;;;;;4708921;30;20048;-74
2021/06/14 13:06:05;;;;;;;;;;;26.30;35.70;;;;;;4709306;30;20048;-75
2021/06/14 13:08:38;;;;;;;4.90;2.88;;;26.30;35.90;;;;;;4704819;30;19930;-75
2021/06/14 13:11:04;;;;;;;8.68;3.78;;;26.20;35.70;;;;;;4709557;30;20104;-75
2021/06/14 13:13:36;;;;;;;16.23;4.17;;;26.20;36.60;;;;;;4700328;30;20061;-75
2021/06/14 13:16:13;;;;;;;15.65;4.97;;;26.20;38.70;;;;;;4709305;30;20100;-75
2021/06/14 13:18:41;;;;;;;13.18;4.25;;;26.50;37.00;;;;;;4705088;30;20214;-75
2021/06/14 13:21:15;;;;;;;14.32;3.63;;;26.60;37.00;;;;;;4707881;30;20162;-75
2021/06/14 13:23:56;;;;;;;6.45;3.63;;;26.80;35.70;;;;;;4705586;30;20280;-74
2021/06/14 13:26:25;;;;;;;10.68;3.17;;;26.70;35.90;;;;;;4706950;30;20033;-74
2021/06/14 13:28:51;;;;;;;12.57;4.43;;;26.50;35.80;;;;;;4693002;30;20061;-75
2021/06/14 13:31:22;;;;;;;7.28;3.58;;;26.60;38.20;;;;;;4707975;30;20297;-74
2021/06/14 13:34:06;;;;;;;9.65;4.25;;;26.70;37.20;;;;;;4707974;30;20037;-75
2021/06/14 13:36:43;;;;;;;16.67;3.80;;;26.90;35.30;;;;;;4705958;30;20067;-75
2021/06/14 13:39:13;;;;;;;;;;;26.80;36.80;;;;;;4706173;30;20040;-74
2021/06/14 13:41:40;;;;;;;15.88;4.05;;;26.60;36.50;;;;;;4709487;30;19919;-74
2021/06/14 13:44:06;;;;;;;;;;;26.60;36.10;;;;;;4709030;30;20061;-73
2021/06/14 13:46:42;;;;;;;9.43;3.60;;;26.60;37.10;;;;;;4709432;30;19919;-73
2021/06/14 13:49:08;;;;;;;9.52;3.65;;;26.80;36.50;;;;;;4709425;30;20329;-74
2021/06/14 13:51:35;;;;;;;9.18;3.85;;;26.80;36.60;;;;;;4709276;30;20030;-74
2021/06/14 13:54:01;;;;;;;8.10;3.10;;;26.70;36.30;;;;;;4693528;30;20046;-74
2021/06/14 13:56:29;;;;;;;8.30;4.40;;;26.70;37.10;;;;;;4700953;30;20112;-73
2021/06/14 13:58:55;;;;;;;10.90;3.50;;;26.80;38.20;;;;;;4706322;30;20089;-74
2021/06/14 14:01:24;;;;;;;9.20;3.50;;;26.80;36.20;;;;;;4704237;30;20041;-74
2021/06/14 14:04:18;;;;;;;8.60;4.50;;;26.80;36.70;;;;;;4709322;30;20029;-73
2021/06/14 14:06:44;;;;;;;9.30;3.33;;;26.80;36.30;;;;;;4707181;30;20040;-74
2021/06/14 14:09:10;;;;;;;10.85;3.17;;;26.60;34.10;;;;;;4714994;30;20263;-74
2021/06/14 14:11:38;;;;;;;7.10;3.30;;;26.50;35.40;;;;;;4708383;30;20041;-74
2021/06/14 14:14:11;;;;;;;6.00;2.88;;;26.50;35.80;;;;;;4705565;30;20026;-74
2021/06/14 14:16:37;;;;;;;7.50;3.35;;;26.60;34.90;;;;;;4712898;30;20034;-74
2021/06/14 14:19:08;;;;;;;10.10;3.92;;;26.50;35.90;;;;;;4703764;30;20524;-74
2021/06/14 14:21:35;;;;;;;12.52;3.88;;;26.50;35.30;;;;;;4708827;30;20252;-74
2021/06/14 14:24:03;;;;;;;8.70;3.35;;;26.50;36.00;;;;;;4709006;30;20025;-74
2021/06/14 14:26:35;;;;;;;8.18;3.33;;;26.60;37.10;;;;;;4710013;30;20054;-74
2021/06/14 14:29:02;;;;;;;5.90;3.38;;;26.80;34.20;;;;;;4705218;30;20053;-75
2021/06/14 14:31:34;;;;;;;8.25;3.45;;;26.80;34.30;;;;;;4700060;30;20036;-75
2021/06/14 14:34:00;;;;;;;9.77;3.47;;;26.80;34.70;;;;;;4705042;30;20056;-74
2021/06/14 14:36:26;;;;;;;14.63;3.47;;;26.80;35.40;;;;;;4705077;30;20104;-74
2021/06/14 14:39:05;;;;;;;6.22;3.13;;;26.90;35.80;;;;;;4693542;30;20344;-74
2021/06/14 14:41:31;;;;;;;8.05;3.78;;;27.10;37.10;;;;;;4700076;30;20268;-74
2021/06/14 14:43:57;;;;;;;9.53;3.87;;;27.20;36.00;;;;;;4704746;30;20029;-74
2021/06/14 14:46:26;;;;;;;11.68;3.67;;;27.40;35.50;;;;;;4704620;30;20044;-74
2021/06/14 14:49:00;;;;;;;6.55;3.30;;;27.50;35.60;;;;;;4706510;30;20037;-74
2021/06/14 14:51:28;;;;;;;6.85;3.30;;;27.40;34.70;;;;;;4708390;30;20051;-73
2021/06/14 14:54:02;;;;;;;8.50;3.65;;;27.30;34.20;;;;;;4704556;30;20139;-74
2021/06/14 14:56:31;;;;;;;8.77;3.53;;;27.10;35.10;;;;;;4707272;30;20239;-73
2021/06/14 14:58:58;;;;;;;8.35;3.53;;;26.90;34.10;;;;;;4706905;30;20112;-74
2021/06/14 15:01:26;;;;;;;9.05;3.58;;;26.80;35.00;;;;;;4707338;30;20037;-74
2021/06/14 15:03:52;;;;;;;7.40;3.50;;;26.80;33.60;;;;;;4707328;30;20029;-73
2021/06/14 15:06:19;;;;;;;6.90;3.72;;;26.70;34.10;;;;;;4707516;30;20040;-74
2021/06/14 15:08:46;;;;;;;5.18;2.83;;;26.80;34.10;;;;;;4690339;30;20045;-74
2021/06/14 15:11:12;;;;;;;16.70;4.13;;;26.60;33.90;;;;;;4707457;30;20036;-73
2021/06/14 15:13:38;;;;;;;13.37;3.70;;;26.50;34.60;;;;;;4704005;30;20050;-74
2021/06/14 15:16:05;;;;;;;7.07;3.40;;;26.50;34.50;;;;;;4711003;30;20288;-74
2021/06/14 15:18:32;;;;;;;10.63;3.55;;;26.50;35.00;;;;;;4712493;30;20035;-74
2021/06/14 15:20:57;;;;;;;9.55;3.70;;;26.50;34.70;;;;;;4707997;30;20333;-74
2021/06/14 15:23:24;;;;;;;6.82;3.20;;;26.50;35.90;;;;;;4706927;30;20112;-73
2021/06/14 15:25:50;;;;;;;8.80;3.75;;;26.40;35.90;;;;;;4707219;30;20044;-74
2021/06/14 15:28:16;;;;;;;7.70;3.92;;;26.50;35.80;;;;;;4708220;30;20043;-74
2021/06/14 15:30:46;;;;;;;10.38;3.33;;;26.60;34.80;;;;;;4712301;30;20033;-74
2021/06/14 15:33:17;;;;;;;5.55;2.80;;;26.60;35.00;;;;;;4707748;30;20034;-73
2021/06/14 15:35:43;;;;;;;7.60;3.25;;;26.60;35.50;;;;;;4698828;30;20268;-73
2021/06/14 15:38:08;;;;;;;5.45;3.08;;;26.70;35.20;;;;;;4714539;30;20033;-73
2021/06/14 15:40:36;;;;;;;9.70;3.45;;;26.70;34.10;;;;;;4710919;30;20080;-75
2021/06/14 15:43:03;;;;;;;8.45;3.40;;;26.50;34.30;;;;;;4715691;30;20034;-75
2021/06/14 15:45:29;;;;;;;8.73;3.38;;;26.40;35.00;;;;;;4714358;30;20041;-72